Time;durP1;ratioP1;P1;durP2;ratioP2;P2;SDS_P1;SDS_P2;PMS_P1;PMS_P2;Temp;Humidity;BMP_temperature;BMP_pressure;BME280_temperature;BME280_humidity;BME280_pressure;Samples;Min_cycle;Max_cycle;Signal;HPM_P1;HPM_P2
2022/08/06 00:02:20;;;;;;;0.00;0.00;;;14.10;99.90;;;;;;4903154;29;20466;-65
2022/08/06 00:04:52;;;;;;;0.00;0.00;;;14.00;99.90;;;;;;4902963;29;21038;-65
2022/08/06 00:07:20;;;;;;;0.00;0.00;;;14.10;99.90;;;;;;4902604;29;20443;-66
2022/08/06 00:09:52;;;;;;;0.00;0.00;;;14.10;99.90;;;;;;4902874;29;20428;-65
2022/08/06 00:12:31;;;;;;;0.00;0.00;;;14.00;99.90;;;;;;4902652;29;20577;-66
2022/08/06 00:15:03;;;;;;;0.00;0.00;;;14.00;99.90;;;;;;4903170;29;20529;-65
2022/08/06 00:17:39;;;;;;;0.00;0.00;;;14.00;99.90;;;;;;4902594;29;20462;-66
2022/08/06 00:20:08;;;;;;;0.00;0.00;;;14.00;99.90;;;;;;4902461;29;20454;-66
2022/08/06 00:22:37;;;;;;;0.00;0.00;;;13.90;99.90;;;;;;4902365;29;20648;-66
2022/08/06 00:25:09;;;;;;;0.00;0.00;;;13.90;99.90;;;;;;4902805;29;20849;-66
2022/08/06 00:27:39;;;;;;;0.00;0.00;;;13.90;99.90;;;;;;4902676;29;20524;-65
2022/08/06 00:30:11;;;;;;;0.00;0.00;;;13.80;99.90;;;;;;4902088;29;20441;-65
2022/08/06 00:32:47;;;;;;;0.00;0.00;;;13.90;99.90;;;;;;4902386;29;20514;-66
2022/08/06 00:35:20;;;;;;;0.00;0.00;;;13.90;99.90;;;;;;4902725;29;20454;-65
2022/08/06 00:37:51;;;;;;;0.00;0.00;;;13.80;99.90;;;;;;4902223;29;20477;-66
2022/08/06 00:40:26;;;;;;;0.00;0.00;;;13.80;99.90;;;;;;4902212;29;20434;-66
2022/08/06 00:42:57;;;;;;;0.00;0.00;;;13.80;99.90;;;;;;4902553;29;20795;-65
2022/08/06 00:45:29;;;;;;;0.00;0.00;;;13.70;99.90;;;;;;4902585;29;20843;-66
2022/08/06 00:47:58;;;;;;;0.00;0.00;;;13.70;99.90;;;;;;4902097;29;20794;-66
2022/08/06 00:50:30;;;;;;;0.00;0.00;;;13.70;99.90;;;;;;4902303;29;20451;-66
2022/08/06 00:52:59;;;;;;;0.00;0.00;;;13.80;99.90;;;;;;4901775;29;20799;-66
2022/08/06 00:55:28;;;;;;;0.00;0.00;;;13.70;99.90;;;;;;4901878;29;20442;-65
2022/08/06 00:58:04;;;;;;;0.00;0.00;;;13.70;99.90;;;;;;4902278;29;20556;-65
2022/08/06 01:00:32;;;;;;;0.00;0.00;;;13.70;99.90;;;;;;4901534;29;20452;-65
2022/08/06 01:03:07;;;;;;;0.00;0.00;;;13.70;99.90;;;;;;4902310;29;20454;-65
2022/08/06 01:05:54;;;;;;;0.00;0.00;;;13.80;99.90;;;;;;4902072;29;20827;-67
2022/08/06 01:08:42;;;;;;;0.00;0.00;;;13.80;99.90;;;;;;4901891;29;21222;-67
2022/08/06 01:11:12;;;;;;;0.00;0.00;;;13.70;99.90;;;;;;4902994;29;20446;-67
2022/08/06 01:13:42;;;;;;;0.00;0.00;;;13.70;99.90;;;;;;4905882;29;20838;-67
2022/08/06 01:16:39;;;;;;;0.00;0.00;;;13.70;99.90;;;;;;4905868;29;20450;-65
2022/08/06 01:19:45;;;;;;;0.00;0.00;;;13.70;99.90;;;;;;4905685;29;20809;-65
2022/08/06 01:22:51;;;;;;;0.00;0.00;;;13.60;99.90;;;;;;4904250;29;20489;-66
2022/08/06 01:26:25;;;;;;;0.00;0.00;;;13.50;99.90;;;;;;4906009;29;21107;-65
2022/08/06 01:29:01;;;;;;;0.00;0.00;;;13.50;99.90;;;;;;4846780;29;20483;-65
2022/08/06 01:31:35;;;;;;;0.00;0.00;;;13.50;99.90;;;;;;4846565;29;20453;-65
2022/08/06 01:34:11;;;;;;;0.00;0.00;;;13.50;99.90;;;;;;4883642;29;20568;-65
2022/08/06 01:36:46;;;;;;;0.00;0.00;;;13.40;99.90;;;;;;4905840;29;20448;-65
2022/08/06 01:39:18;;;;;;;0.00;0.00;;;13.40;99.90;;;;;;4905327;29;20464;-65
2022/08/06 01:42:08;;;;;;;0.00;0.00;;;13.40;99.90;;;;;;4905616;29;20462;-65
2022/08/06 01:44:41;;;;;;;0.00;0.00;;;13.30;99.90;;;;;;4905343;29;20468;-65
2022/08/06 01:47:13;;;;;;;0.00;0.00;;;13.40;99.90;;;;;;4905021;29;20446;-64
2022/08/06 01:49:47;;;;;;;0.00;0.00;;;13.40;99.90;;;;;;4905060;29;20525;-65
2022/08/06 01:52:33;;;;;;;0.00;0.00;;;13.40;99.90;;;;;;4905305;29;20450;-65
2022/08/06 01:55:09;;;;;;;0.00;0.00;;;13.40;99.90;;;;;;4905342;29;20905;-65
2022/08/06 01:57:45;;;;;;;0.00;0.00;;;13.40;99.90;;;;;;4904776;29;20462;-65
2022/08/06 02:00:40;;;;;;;0.00;0.00;;;13.30;99.90;;;;;;4904202;29;21027;-65
2022/08/06 02:03:20;;;;;;;0.00;0.00;;;13.30;99.90;;;;;;4905002;29;20799;-65
2022/08/06 02:05:52;;;;;;;0.00;0.00;;;13.30;99.90;;;;;;4905011;29;20444;-65
2022/08/06 02:08:30;;;;;;;0.00;0.00;;;13.30;99.90;;;;;;4904731;29;20457;-65
2022/08/06 02:11:09;;;;;;;0.00;0.00;;;13.30;99.90;;;;;;4904751;29;20473;-65
2022/08/06 02:13:59;;;;;;;0.00;0.00;;;13.30;99.90;;;;;;4905017;29;20493;-65
2022/08/06 02:21:47;;;;;;;0.00;0.00;;;13.20;99.90;;;;;;5081410;23;20495;-68
2022/08/06 02:24:20;;;;;;;0.00;0.00;;;13.20;99.90;;;;;;4962513;28;20541;-68
2022/08/06 02:26:52;;;;;;;0.00;0.00;;;13.20;99.90;;;;;;4962339;28;20436;-68
2022/08/06 02:29:22;;;;;;;0.00;0.00;;;13.10;99.90;;;;;;4961974;28;20763;-66
2022/08/06 02:31:53;;;;;;;0.00;0.00;;;13.20;99.90;;;;;;4962302;28;20698;-68
2022/08/06 02:34:21;;;;;;;0.00;0.00;;;13.20;99.90;;;;;;4961985;28;20780;-67
2022/08/06 02:37:02;;;;;;;0.00;0.00;;;13.20;99.90;;;;;;4962237;28;20455;-68
2022/08/06 02:39:40;;;;;;;0.00;0.00;;;13.20;99.90;;;;;;4961971;28;20750;-68
2022/08/06 02:42:23;;;;;;;0.00;0.00;;;13.20;99.90;;;;;;4961764;28;20570;-68
2022/08/06 02:45:01;;;;;;;0.00;0.00;;;13.10;99.90;;;;;;4961873;28;20448;-67
2022/08/06 02:47:34;;;;;;;0.00;0.00;;;13.00;99.90;;;;;;4961633;28;20506;-68
2022/08/06 02:50:28;;;;;;;0.00;0.00;;;13.10;99.90;;;;;;4961588;28;20440;-68
2022/08/06 02:53:04;;;;;;;0.00;0.00;;;13.00;99.90;;;;;;4961710;28;20444;-67
2022/08/06 02:55:48;;;;;;;0.00;0.00;;;13.00;99.90;;;;;;4961659;28;20568;-68
2022/08/06 02:58:22;;;;;;;0.00;0.00;;;13.00;99.90;;;;;;4961704;28;20459;-68
2022/08/06 03:01:07;;;;;;;0.00;0.00;;;13.00;99.90;;;;;;4961284;28;20436;-68
2022/08/06 03:03:37;;;;;;;0.00;0.00;;;12.90;99.90;;;;;;4962446;28;20420;-68
2022/08/06 03:06:24;;;;;;;0.00;0.00;;;12.90;99.90;;;;;;4961342;28;20439;-67
2022/08/06 03:08:57;;;;;;;0.00;0.00;;;12.90;99.90;;;;;;4961475;28;20522;-67
2022/08/06 03:11:29;;;;;;;0.00;0.00;;;12.80;99.90;;;;;;4961304;28;20458;-67
2022/08/06 03:14:01;;;;;;;0.00;0.00;;;12.80;99.90;;;;;;4961154;28;21005;-68
2022/08/06 03:16:41;;;;;;;0.00;0.00;;;12.80;99.90;;;;;;4961404;28;20509;-67
2022/08/06 03:19:20;;;;;;;0.00;0.00;;;12.90;99.90;;;;;;4961443;28;20800;-67
2022/08/06 03:22:09;;;;;;;0.00;0.00;;;12.90;99.90;;;;;;4961334;28;20817;-67
2022/08/06 03:24:47;;;;;;;0.00;0.00;;;12.90;99.90;;;;;;4961113;28;20633;-67
2022/08/06 03:27:19;;;;;;;0.00;0.00;;;12.80;99.90;;;;;;4960985;28;20526;-67
2022/08/06 03:29:50;;;;;;;0.00;0.00;;;12.90;99.90;;;;;;4960667;28;20417;-67
2022/08/06 03:32:29;;;;;;;0.00;0.00;;;12.80;99.90;;;;;;4961243;28;20740;-67
2022/08/06 03:35:17;;;;;;;0.00;0.00;;;12.80;99.90;;;;;;4960116;28;20475;-67
2022/08/06 03:38:08;;;;;;;0.00;0.00;;;12.80;99.90;;;;;;4961156;28;20471;-67
2022/08/06 03:40:38;;;;;;;0.00;0.00;;;12.80;99.90;;;;;;4960557;28;20603;-67
2022/08/06 03:43:08;;;;;;;0.00;0.00;;;12.70;99.90;;;;;;4960592;28;20943;-67
2022/08/06 03:45:47;;;;;;;0.00;0.00;;;12.70;99.90;;;;;;4960530;28;20738;-67
2022/08/06 03:48:27;;;;;;;0.00;0.00;;;12.70;99.90;;;;;;4960680;28;20481;-67
2022/08/06 03:51:09;;;;;;;0.00;0.00;;;12.70;99.90;;;;;;4960751;28;20471;-66
2022/08/06 03:53:38;;;;;;;0.00;0.00;;;12.70;99.90;;;;;;4960406;28;20633;-67
2022/08/06 03:56:20;;;;;;;0.00;0.00;;;12.70;99.90;;;;;;4960611;28;20428;-67
2022/08/06 03:59:02;;;;;;;0.00;0.00;;;12.70;99.90;;;;;;4959905;28;20849;-67
2022/08/06 04:01:35;;;;;;;0.00;0.00;;;12.70;99.90;;;;;;4960064;28;20459;-67
2022/08/06 04:04:18;;;;;;;0.00;0.00;;;12.70;99.90;;;;;;4960378;28;20471;-67
2022/08/06 04:06:55;;;;;;;0.00;0.00;;;12.70;99.90;;;;;;4960230;28;20446;-67
2022/08/06 04:09:25;;;;;;;0.00;0.00;;;12.70;99.90;;;;;;4960258;28;20483;-67
2022/08/06 04:12:15;;;;;;;0.00;0.00;;;12.70;99.90;;;;;;4960454;28;20447;-67
2022/08/06 04:15:05;;;;;;;0.00;0.00;;;12.70;99.90;;;;;;4960010;28;20761;-67
2022/08/06 04:17:38;;;;;;;0.00;0.00;;;12.70;99.90;;;;;;4959947;28;20483;-66
2022/08/06 04:20:10;;;;;;;0.00;0.00;;;12.80;99.90;;;;;;4960142;28;20446;-67
2022/08/06 04:22:38;;;;;;;0.00;0.00;;;12.80;99.90;;;;;;4959779;28;20511;-67
2022/08/06 04:25:29;;;;;;;0.00;0.00;;;12.80;99.90;;;;;;4960049;28;20470;-66
2022/08/06 04:27:59;;;;;;;0.00;0.00;;;12.80;99.90;;;;;;4959558;28;20922;-66
2022/08/06 04:30:28;;;;;;;0.00;0.00;;;12.80;99.90;;;;;;4959526;28;20440;-67
2022/08/06 04:32:56;;;;;;;0.00;0.00;;;12.80;99.90;;;;;;4959704;28;20817;-67
2022/08/06 04:35:29;;;;;;;0.00;0.00;;;12.80;99.90;;;;;;4959488;28;20489;-66
2022/08/06 04:38:21;;;;;;;0.00;0.00;;;12.90;99.90;;;;;;4960028;28;20467;-66
2022/08/06 04:40:57;;;;;;;0.00;0.00;;;12.90;99.90;;;;;;4959754;28;20424;-66
2022/08/06 04:43:32;;;;;;;0.00;0.00;;;13.00;99.90;;;;;;4959507;28;20531;-66
2022/08/06 04:46:19;;;;;;;0.00;0.00;;;13.00;99.90;;;;;;4959104;28;20930;-67
2022/08/06 04:48:47;;;;;;;0.00;0.00;;;13.10;99.90;;;;;;4960268;28;20753;-66
2022/08/06 04:51:24;;;;;;;0.00;0.00;;;13.20;99.90;;;;;;4959802;28;20436;-66
2022/08/06 04:54:12;;;;;;;0.00;0.00;;;13.20;99.90;;;;;;4959530;28;20978;-66
2022/08/06 04:56:43;;;;;;;0.00;0.00;;;13.30;99.90;;;;;;4960030;28;20432;-66
2022/08/06 04:59:19;;;;;;;0.00;0.00;;;13.30;99.90;;;;;;4959554;28;20499;-66
2022/08/06 05:01:47;;;;;;;0.00;0.00;;;13.30;99.90;;;;;;4960409;28;20469;-66
2022/08/06 05:04:27;;;;;;;0.00;0.00;;;13.40;99.90;;;;;;4959477;28;20435;-66
2022/08/06 05:07:01;;;;;;;0.00;0.00;;;13.50;99.90;;;;;;4959743;28;21005;-66
2022/08/06 05:09:31;;;;;;;0.00;0.00;;;13.50;99.90;;;;;;4960181;28;20449;-66
2022/08/06 05:12:19;;;;;;;0.00;0.00;;;13.50;99.90;;;;;;4959590;28;20454;-66
2022/08/06 05:14:55;;;;;;;0.00;0.00;;;13.60;99.90;;;;;;4959994;28;20489;-66
2022/08/06 05:17:30;;;;;;;0.00;0.00;;;13.70;99.90;;;;;;4959982;28;20489;-66
2022/08/06 05:20:10;;;;;;;0.00;0.00;;;13.70;99.90;;;;;;4959379;28;20998;-66
2022/08/06 05:22:56;;;;;;;0.00;0.00;;;13.70;99.90;;;;;;4959654;28;20471;-68
2022/08/06 05:25:30;;;;;;;0.00;0.00;;;13.80;99.90;;;;;;4959814;28;20443;-68
2022/08/06 05:28:03;;;;;;;0.00;0.00;;;13.90;99.90;;;;;;4960038;28;20472;-68
2022/08/06 05:30:44;;;;;;;0.00;0.00;;;14.00;99.90;;;;;;4959554;28;20447;-67
2022/08/06 05:33:22;;;;;;;0.00;0.00;;;14.10;99.90;;;;;;4959648;28;21055;-68
2022/08/06 05:35:51;;;;;;;0.00;0.00;;;14.20;99.90;;;;;;4959933;28;20644;-68
2022/08/06 05:38:32;;;;;;;0.00;0.00;;;14.30;99.90;;;;;;4959942;28;20475;-68
2022/08/06 05:41:05;;;;;;;0.00;0.00;;;14.50;99.90;;;;;;4959580;28;20436;-68
2022/08/06 05:43:34;;;;;;;0.00;0.00;;;14.80;99.90;;;;;;4960088;28;20518;-68
2022/08/06 05:46:25;;;;;;;0.00;0.00;;;15.20;99.90;;;;;;4959899;28;20974;-68
2022/08/06 05:49:01;;;;;;;0.00;0.00;;;15.50;99.90;;;;;;4959724;28;20754;-68
2022/08/06 05:51:44;;;;;;;0.00;0.00;;;15.70;99.90;;;;;;4959244;28;20443;-68
2022/08/06 05:54:22;;;;;;;0.00;0.00;;;15.90;99.90;;;;;;4959470;28;20966;-67
2022/08/06 05:56:56;;;;;;;0.00;0.00;;;16.10;99.90;;;;;;4959917;28;20606;-68
2022/08/06 05:59:35;;;;;;;0.00;0.00;;;16.30;99.90;;;;;;4963403;28;20466;-68
2022/08/06 06:02:27;;;;;;;0.00;0.00;;;16.50;99.90;;;;;;4964487;28;20744;-68
2022/08/06 06:04:59;;;;;;;0.00;0.00;;;16.60;99.90;;;;;;4963884;28;20542;-68
2022/08/06 06:07:48;;;;;;;0.00;0.00;;;16.60;99.90;;;;;;4964219;28;20491;-67
2022/08/06 06:10:36;;;;;;;0.00;0.00;;;16.60;99.90;;;;;;4964158;28;20443;-68
2022/08/06 06:13:10;;;;;;;0.00;0.00;;;16.50;99.90;;;;;;4963729;28;20467;-68
2022/08/06 06:16:08;;;;;;;0.00;0.00;;;16.50;99.90;;;;;;4963043;28;20483;-68
2022/08/06 06:18:58;;;;;;;0.00;0.00;;;16.50;99.90;;;;;;4962838;28;20526;-68
2022/08/06 06:21:36;;;;;;;0.00;0.00;;;16.50;99.90;;;;;;4962377;28;20956;-68
2022/08/06 06:24:15;;;;;;;0.00;0.00;;;16.40;99.90;;;;;;4962642;28;20451;-67
2022/08/06 06:26:49;;;;;;;0.00;0.00;;;16.40;99.90;;;;;;4962548;28;20436;-69
2022/08/06 06:29:31;;;;;;;0.00;0.00;;;16.30;99.90;;;;;;4962312;28;20500;-67
2022/08/06 06:32:31;;;;;;;0.00;0.00;;;16.40;99.90;;;;;;4962416;28;20600;-68
2022/08/06 06:35:09;;;;;;;0.00;0.00;;;16.50;99.90;;;;;;4962473;28;20960;-67
2022/08/06 06:37:47;;;;;;;0.00;0.00;;;16.40;99.90;;;;;;4961891;28;20543;-68
2022/08/06 06:40:42;;;;;;;0.00;0.00;;;16.30;99.90;;;;;;4962287;28;20485;-68
2022/08/06 06:43:34;;;;;;;0.00;0.00;;;16.20;99.90;;;;;;4962218;28;20502;-68
2022/08/06 06:46:21;;;;;;;0.00;0.00;;;16.30;99.90;;;;;;4962278;28;20436;-68
2022/08/06 06:49:13;;;;;;;0.00;0.00;;;16.30;99.90;;;;;;4962362;28;20459;-68
2022/08/06 06:52:08;;;;;;;0.00;0.00;;;16.40;99.90;;;;;;4962158;28;20440;-69
2022/08/06 06:54:42;;;;;;;0.00;0.00;;;16.50;99.90;;;;;;4961914;28;20436;-68
2022/08/06 06:57:18;;;;;;;0.00;0.00;;;16.60;99.90;;;;;;4962111;28;20483;-68
2022/08/06 06:59:53;;;;;;;0.00;0.00;;;16.60;99.90;;;;;;4961769;28;20448;-68
2022/08/06 07:02:42;;;;;;;0.00;0.00;;;16.60;99.90;;;;;;4962438;28;20731;-68
2022/08/06 07:05:12;;;;;;;0.00;0.00;;;16.60;99.90;;;;;;4961567;28;20515;-68
2022/08/06 07:07:47;;;;;;;0.00;0.00;;;16.70;99.90;;;;;;4962168;28;20653;-68
2022/08/06 07:10:18;;;;;;;0.00;0.00;;;16.70;99.90;;;;;;4961065;28;20442;-66
2022/08/06 07:12:46;;;;;;;0.00;0.00;;;16.80;99.90;;;;;;4961680;28;20444;-68
2022/08/06 07:15:21;;;;;;;0.00;0.00;;;16.90;99.90;;;;;;4961583;28;21014;-66
2022/08/06 07:17:52;;;;;;;0.00;0.00;;;17.00;99.90;;;;;;4961450;28;20480;-66
2022/08/06 07:20:28;;;;;;;0.00;0.00;;;17.20;99.90;;;;;;4961491;28;20878;-68
2022/08/06 07:23:01;;;;;;;0.00;0.00;;;17.30;99.90;;;;;;4961225;28;20560;-68
2022/08/06 07:25:50;;;;;;;0.00;0.00;;;17.20;99.90;;;;;;4961516;28;20450;-67
2022/08/06 07:28:25;;;;;;;0.00;0.00;;;17.30;99.90;;;;;;4961555;28;20475;-68
2022/08/06 07:30:56;;;;;;;0.00;0.00;;;17.40;99.90;;;;;;4961454;28;20442;-68
2022/08/06 07:33:35;;;;;;;0.00;0.00;;;17.60;99.90;;;;;;4961212;28;20472;-66
2022/08/06 07:36:26;;;;;;;0.00;0.00;;;17.80;99.90;;;;;;4962280;28;20478;-67
2022/08/06 07:39:01;;;;;;;0.00;0.00;;;18.10;99.90;;;;;;4961411;28;20505;-68
2022/08/06 07:41:31;;;;;;;0.00;0.00;;;18.40;99.90;;;;;;4961605;28;20889;-67
2022/08/06 07:44:21;;;;;;;0.00;0.00;;;18.80;99.90;;;;;;4961116;28;20451;-67
2022/08/06 07:46:58;;;;;;;0.00;0.00;;;19.00;99.90;;;;;;4961170;28;20468;-67
2022/08/06 07:49:34;;;;;;;0.00;0.00;;;19.30;99.90;;;;;;4960642;28;20465;-67
2022/08/06 07:52:22;;;;;;;0.00;0.00;;;19.50;99.90;;;;;;4960626;28;20444;-67
2022/08/06 07:54:56;;;;;;;0.00;0.00;;;19.50;99.90;;;;;;4960779;28;20943;-67
2022/08/06 07:57:26;;;;;;;0.00;0.00;;;19.40;99.90;;;;;;4960484;28;20487;-67
2022/08/06 08:00:07;;;;;;;0.00;0.00;;;19.30;99.90;;;;;;4960043;28;20554;-66
2022/08/06 08:06:17;;;;;;;0.00;0.00;;;19.00;99.90;;;;;;4960742;28;20779;-67
2022/08/06 08:08:29;;;;;;;0.00;0.00;;;18.70;99.90;;;;;;4960433;28;20473;-67
2022/08/06 08:10:58;;;;;;;0.00;0.00;;;18.60;99.90;;;;;;4960487;28;20927;-67
2022/08/06 08:13:26;;;;;;;0.00;0.00;;;18.50;99.90;;;;;;4960294;28;20443;-67
2022/08/06 08:16:12;;;;;;;0.00;0.00;;;18.50;99.90;;;;;;4960399;28;20439;-67
2022/08/06 08:18:47;;;;;;;0.00;0.00;;;18.50;99.90;;;;;;4960501;28;20490;-67
2022/08/06 08:21:20;;;;;;;0.00;0.00;;;18.50;99.90;;;;;;4960378;28;20441;-67
2022/08/06 08:23:51;;;;;;;0.00;0.00;;;18.40;99.90;;;;;;4960209;28;20562;-67
2022/08/06 08:26:24;;;;;;;0.00;0.00;;;18.40;99.90;;;;;;4960201;28;20599;-67
2022/08/06 08:28:52;;;;;;;0.00;0.00;;;18.30;99.90;;;;;;4960020;28;20876;-67
2022/08/06 08:31:20;;;;;;;0.00;0.00;;;18.40;99.90;;;;;;4960180;28;20437;-67
2022/08/06 08:33:54;;;;;;;0.00;0.00;;;18.30;99.90;;;;;;4960568;28;20787;-68
2022/08/06 08:36:23;;;;;;;0.00;0.00;;;18.30;99.90;;;;;;4960830;28;20456;-67
2022/08/06 08:38:57;;;;;;;0.00;0.00;;;18.40;99.90;;;;;;4960596;28;20491;-67
2022/08/06 08:41:32;;;;;;;0.00;0.00;;;18.40;99.90;;;;;;4959906;28;20444;-67
2022/08/06 08:44:22;;;;;;;0.00;0.00;;;18.40;99.90;;;;;;4960353;28;20458;-67
2022/08/06 08:46:57;;;;;;;0.00;0.00;;;18.50;99.90;;;;;;4960025;28;20439;-68
2022/08/06 08:49:32;;;;;;;0.00;0.00;;;18.60;99.90;;;;;;4960307;28;21039;-68
2022/08/06 08:52:02;;;;;;;0.00;0.00;;;18.80;99.90;;;;;;4960465;28;20708;-68
2022/08/06 08:54:40;;;;;;;0.00;0.00;;;18.90;99.90;;;;;;4960491;28;20463;-68
2022/08/06 08:57:11;;;;;;;0.00;0.00;;;19.00;99.90;;;;;;4960056;28;20483;-68
2022/08/06 09:00:01;;;;;;;0.00;0.00;;;19.10;99.90;;;;;;4959295;28;20743;-67
2022/08/06 09:02:38;;;;;;;0.00;0.00;;;19.30;99.90;;;;;;4959783;28;20585;-68
2022/08/06 09:05:15;;;;;;;0.00;0.00;;;19.50;99.90;;;;;;4960089;28;20444;-68
2022/08/06 09:07:44;;;;;;;0.00;0.00;;;19.60;99.90;;;;;;4959875;28;20459;-66
2022/08/06 09:10:29;;;;;;;0.00;0.00;;;19.60;99.90;;;;;;4959779;28;20747;-68
2022/08/06 09:13:05;;;;;;;0.00;0.00;;;19.60;99.90;;;;;;4960178;28;20439;-68
2022/08/06 09:15:53;;;;;;;0.00;0.00;;;19.60;99.90;;;;;;4959892;28;20445;-68
2022/08/06 09:18:22;;;;;;;0.00;0.00;;;19.70;99.90;;;;;;4959448;28;20852;-66
2022/08/06 09:20:54;;;;;;;0.00;0.00;;;19.90;99.90;;;;;;4959306;28;20443;-68
2022/08/06 09:23:24;;;;;;;0.00;0.00;;;19.90;99.90;;;;;;4959614;28;20464;-68
2022/08/06 09:26:06;;;;;;;0.00;0.00;;;20.00;99.90;;;;;;4960346;28;20733;-68
2022/08/06 09:28:37;;;;;;;0.00;0.00;;;20.30;99.90;;;;;;4960345;28;20468;-68
2022/08/06 09:31:07;;;;;;;0.00;0.00;;;20.40;99.90;;;;;;4959797;28;20475;-67
2022/08/06 09:33:58;;;;;;;0.00;0.00;;;20.40;99.90;;;;;;4966932;28;20460;-67
2022/08/06 09:36:47;;;;;;;0.00;0.00;;;20.40;99.90;;;;;;4967765;28;20738;-67
2022/08/06 09:39:31;;;;;;;0.00;0.00;;;20.40;99.90;;;;;;4962931;28;20858;-67
2022/08/06 09:42:37;;;;;;;0.00;0.00;;;20.50;99.90;;;;;;4963201;28;20444;-67
2022/08/06 09:45:12;;;;;;;0.00;0.00;;;20.70;99.90;;;;;;4963447;28;20962;-67
2022/08/06 09:47:44;;;;;;;0.00;0.00;;;20.70;99.90;;;;;;4962937;28;20451;-67
2022/08/06 09:50:15;;;;;;;0.00;0.00;;;20.80;99.90;;;;;;4963272;28;20451;-67
2022/08/06 09:53:02;;;;;;;0.00;0.00;;;20.80;99.90;;;;;;4965168;28;20550;-67
2022/08/06 09:55:42;;;;;;;0.00;0.00;;;20.90;99.90;;;;;;4963164;28;20714;-67
2022/08/06 09:58:11;;;;;;;0.00;0.00;;;20.80;99.90;;;;;;4962320;28;20491;-67
2022/08/06 10:00:41;;;;;;;0.00;0.00;;;20.70;99.90;;;;;;4961942;28;20452;-67
2022/08/06 10:03:18;;;;;;;0.00;0.00;;;20.70;99.90;;;;;;4962864;28;20464;-67
2022/08/06 10:06:07;;;;;;;0.00;0.00;;;20.60;99.90;;;;;;4963876;28;20448;-68
2022/08/06 10:08:41;;;;;;;0.00;0.00;;;20.40;99.90;;;;;;4963778;28;20517;-67
2022/08/06 10:11:09;;;;;;;0.00;0.00;;;20.20;99.90;;;;;;4963623;28;20449;-67
2022/08/06 10:13:39;;;;;;;0.00;0.00;;;20.10;99.90;;;;;;4964325;28;21003;-67
2022/08/06 10:16:19;;;;;;;0.00;0.00;;;20.00;99.90;;;;;;4962542;28;20722;-67
2022/08/06 10:18:49;;;;;;;0.00;0.00;;;19.90;99.90;;;;;;4962211;28;20487;-68
2022/08/06 10:21:28;;;;;;;0.00;0.00;;;19.90;99.90;;;;;;4962013;28;20931;-67
2022/08/06 10:24:14;;;;;;;0.00;0.00;;;20.00;99.90;;;;;;4962525;28;20455;-67
2022/08/06 10:27:04;;;;;;;0.00;0.00;;;20.10;99.90;;;;;;4962648;28;20972;-67
2022/08/06 10:29:43;;;;;;;0.00;0.00;;;20.30;99.90;;;;;;4963123;28;21049;-67
2022/08/06 10:32:17;;;;;;;0.00;0.00;;;20.50;99.90;;;;;;4962696;28;20830;-67
2022/08/06 10:34:49;;;;;;;0.00;0.00;;;20.70;99.90;;;;;;4962231;28;20489;-68
2022/08/06 10:37:19;;;;;;;0.00;0.00;;;21.00;99.90;;;;;;4961805;28;20435;-67
2022/08/06 10:40:09;;;;;;;0.00;0.00;;;21.30;99.90;;;;;;4961997;28;20436;-67
2022/08/06 10:42:39;;;;;;;0.00;0.00;;;21.50;99.90;;;;;;4962371;28;20447;-67
2022/08/06 10:45:10;;;;;;;0.00;0.00;;;21.50;99.90;;;;;;4960444;28;20494;-67
2022/08/06 10:47:44;;;;;;;0.00;0.00;;;21.30;99.90;;;;;;4961999;28;20479;-67
2022/08/06 10:50:32;;;;;;;0.00;0.00;;;21.20;99.90;;;;;;4961647;28;20444;-68
2022/08/06 10:53:12;;;;;;;0.00;0.00;;;21.00;99.90;;;;;;4961716;28;20444;-68
2022/08/06 10:56:03;;;;;;;0.00;0.00;;;20.80;99.90;;;;;;4961916;28;20986;-68
2022/08/06 10:58:33;;;;;;;0.00;0.00;;;20.50;99.90;;;;;;4961805;28;21005;-68
2022/08/06 11:01:05;;;;;;;0.00;0.00;;;20.30;99.90;;;;;;4961672;28;20440;-68
2022/08/06 11:03:47;;;;;;;0.00;0.00;;;20.30;99.90;;;;;;4961738;28;20528;-68
2022/08/06 11:06:51;;;;;;;0.00;0.00;;;20.20;99.90;;;;;;4961721;28;20538;-67
2022/08/06 11:09:34;;;;;;;0.00;0.00;;;20.30;99.90;;;;;;4955478;28;21002;-68
2022/08/06 11:12:40;;;;;;;0.00;0.00;;;20.40;99.90;;;;;;4961426;28;21042;-68
2022/08/06 11:15:15;;;;;;;0.00;0.00;;;20.40;99.90;;;;;;4961090;28;20467;-66
2022/08/06 11:17:45;;;;;;;0.00;0.00;;;20.40;99.90;;;;;;4960991;28;20830;-67
2022/08/06 11:20:36;;;;;;;0.00;0.00;;;20.40;99.90;;;;;;4960985;28;20454;-67
2022/08/06 11:23:06;;;;;;;0.00;0.00;;;20.40;99.90;;;;;;4960884;28;20492;-67
2022/08/06 11:25:39;;;;;;;0.00;0.00;;;20.60;99.90;;;;;;4960920;28;20797;-68
2022/08/06 11:28:08;;;;;;;0.00;0.00;;;20.70;99.90;;;;;;4961178;28;20458;-68
2022/08/06 11:30:38;;;;;;;0.00;0.00;;;20.90;99.90;;;;;;4960938;28;20475;-66
2022/08/06 11:33:09;;;;;;;0.00;0.00;;;20.90;99.90;;;;;;4961575;28;20819;-68
2022/08/06 11:35:46;;;;;;;0.00;0.00;;;21.00;99.90;;;;;;4961680;28;20459;-68
2022/08/06 11:38:58;;;;;;;0.00;0.00;;;21.20;99.90;;;;;;4960856;28;20486;-68
2022/08/06 11:41:49;;;;;;;0.00;0.00;;;21.40;99.90;;;;;;4960949;28;20965;-68
2022/08/06 11:44:30;;;;;;;0.00;0.00;;;21.30;99.90;;;;;;4960654;28;20456;-68
2022/08/06 11:47:19;;;;;;;0.00;0.00;;;21.20;99.90;;;;;;4960496;28;20440;-67
2022/08/06 11:50:22;;;;;;;0.00;0.00;;;21.20;99.90;;;;;;4960732;28;20554;-68
2022/08/06 11:52:55;;;;;;;0.00;0.00;;;21.30;99.90;;;;;;4960578;28;20521;-68
2022/08/06 11:55:24;;;;;;;0.00;0.00;;;21.50;99.90;;;;;;4960348;28;20528;-67
2022/08/06 11:58:20;;;;;;;0.00;0.00;;;21.50;99.90;;;;;;4960336;28;20461;-66
2022/08/06 12:00:59;;;;;;;0.00;0.00;;;21.40;99.90;;;;;;4959838;28;20440;-67
2022/08/06 12:03:48;;;;;;;0.00;0.00;;;21.40;98.60;;;;;;4960398;28;20444;-67
2022/08/06 12:06:23;;;;;;;0.00;0.00;;;21.30;98.40;;;;;;4960296;28;20460;-68
2022/08/06 12:09:10;;;;;;;0.00;0.00;;;21.20;97.90;;;;;;4960284;28;20471;-68
2022/08/06 12:11:51;;;;;;;0.00;0.00;;;21.20;97.00;;;;;;4960046;28;20444;-68
2022/08/06 12:14:43;;;;;;;0.00;0.00;;;21.20;97.60;;;;;;4960372;28;20463;-68
2022/08/06 12:17:18;;;;;;;0.00;0.00;;;21.10;98.10;;;;;;4958568;28;20807;-68
2022/08/06 12:19:49;;;;;;;0.00;0.00;;;21.20;98.20;;;;;;4959568;28;20475;-67
2022/08/06 12:22:31;;;;;;;0.00;0.00;;;21.20;98.30;;;;;;4960390;28;20742;-68
2022/08/06 12:25:03;;;;;;;0.00;0.00;;;21.20;98.40;;;;;;4960036;28;20442;-66
2022/08/06 12:27:40;;;;;;;0.00;0.00;;;21.10;98.80;;;;;;4959853;28;20850;-68
2022/08/06 12:30:18;;;;;;;0.00;0.00;;;21.10;95.20;;;;;;4960028;28;20526;-68
2022/08/06 12:33:06;;;;;;;0.00;0.00;;;21.10;96.00;;;;;;4959720;28;20435;-68
2022/08/06 12:35:56;;;;;;;0.00;0.00;;;21.20;96.10;;;;;;4959790;28;20447;-68
2022/08/06 12:38:27;;;;;;;0.00;0.00;;;21.20;96.60;;;;;;4959295;28;20551;-68
2022/08/06 12:40:59;;;;;;;0.00;0.00;;;21.30;96.40;;;;;;4959270;28;20879;-68
2022/08/06 12:43:28;;;;;;;0.00;0.00;;;21.40;95.60;;;;;;4959739;28;20738;-67
2022/08/06 12:46:16;;;;;;;0.00;0.00;;;21.40;96.50;;;;;;4959855;28;20512;-68
2022/08/06 12:48:49;;;;;;;0.00;0.00;;;21.30;96.80;;;;;;4959765;28;20733;-68
2022/08/06 12:51:18;;;;;;;0.00;0.00;;;21.30;97.10;;;;;;4959265;28;20444;-68
2022/08/06 12:53:56;;;;;;;0.00;0.00;;;21.30;96.60;;;;;;4959592;28;20472;-68
2022/08/06 12:56:29;;;;;;;0.00;0.00;;;21.40;96.60;;;;;;4959341;28;20726;-68
2022/08/06 12:59:03;;;;;;;0.00;0.00;;;21.40;97.30;;;;;;4960703;28;21022;-68
2022/08/06 13:01:35;;;;;;;0.00;0.00;;;21.50;96.30;;;;;;4960477;28;20444;-68
2022/08/06 13:04:24;;;;;;;0.00;0.00;;;21.60;96.00;;;;;;4959337;28;20944;-68
2022/08/06 13:06:59;;;;;;;0.00;0.00;;;21.60;96.30;;;;;;4958450;28;20953;-68
2022/08/06 13:09:30;;;;;;;0.00;0.00;;;21.80;95.90;;;;;;4959158;28;20508;-68
2022/08/06 13:12:14;;;;;;;0.00;0.00;;;21.80;96.00;;;;;;4959184;28;20740;-68
2022/08/06 13:14:52;;;;;;;0.00;0.00;;;21.80;95.90;;;;;;4959096;28;20525;-68
2022/08/06 13:17:28;;;;;;;0.00;0.00;;;21.90;95.60;;;;;;4958856;28;20551;-68
2022/08/06 13:20:15;;;;;;;0.00;0.00;;;22.00;95.60;;;;;;4959154;28;20529;-68
2022/08/06 13:22:59;;;;;;;0.00;0.00;;;22.00;95.00;;;;;;4959329;28;20670;-68
2022/08/06 13:25:27;;;;;;;0.00;0.00;;;21.90;95.50;;;;;;4959416;28;20793;-66
2022/08/06 13:28:18;;;;;;;0.00;0.00;;;21.90;95.50;;;;;;4959422;28;20486;-68
2022/08/06 13:30:56;;;;;;;0.00;0.00;;;21.90;95.10;;;;;;4959049;28;20444;-67
2022/08/06 13:33:36;;;;;;;0.00;0.00;;;21.90;94.80;;;;;;4959251;28;20449;-68
2022/08/06 13:36:28;;;;;;;0.00;0.00;;;22.00;95.10;;;;;;4959043;28;20458;-68
2022/08/06 13:39:03;;;;;;;0.00;0.00;;;22.00;96.00;;;;;;4959447;28;20457;-68
2022/08/06 13:41:34;;;;;;;0.00;0.00;;;22.00;96.60;;;;;;4959422;28;20736;-67
2022/08/06 13:44:06;;;;;;;0.00;0.00;;;22.00;96.30;;;;;;4959683;28;20531;-68
2022/08/06 13:46:43;;;;;;;0.00;0.00;;;22.00;96.20;;;;;;4959274;28;20445;-68
2022/08/06 13:49:18;;;;;;;0.00;0.00;;;21.90;96.00;;;;;;4959130;28;20461;-68
2022/08/06 13:51:47;;;;;;;0.00;0.00;;;22.00;96.40;;;;;;4958766;28;20437;-68
2022/08/06 13:54:21;;;;;;;0.00;0.00;;;22.00;96.60;;;;;;4959016;28;20454;-68